Terminal Aerodrome Forecast
Issued by NWS

Home | Current Version | Previous Version | Text Only | Print | Product List | Glossary On
Versions: 1 2 3 4 5 6 7 8 9 10 11 12 13 14 15 16 17 18 19 20 21 22 23 24 25 26
000
FTUS42 KRAH 051138 AAA
TAFINT
TAF AMD
KINT 051138Z 0512/0612 VRB03KT P6SM FEW003 BKN110
      TEMPO 0512/0514 BKN003
     FM051400 35005KT P6SM SCT050 BKN150
     FM060200 07004KT P6SM -RA BKN040 BKN120
     FM060600 06005KT 5SM -RA BR BKN008 OVC025=

USA.gov is the U.S. government's official web portal to all federal, state and local government web resources and services.